Time;durP1;ratioP1;P1;durP2;ratioP2;P2;SDS_P1;SDS_P2;PMS_P1;PMS_P2;Temp;Humidity;BMP_temperature;BMP_pressure;BME280_temperature;BME280_humidity;BME280_pressure;Samples;Min_cycle;Max_cycle;Signal;HPM_P1;HPM_P2
2022/12/09 00:01:44;;;;;;;43.80;23.60;;;;;;;10.50;83.60;100805.72;6224308;23;20017;-82
2022/12/09 00:04:13;;;;;;;43.33;24.08;;;;;;;10.48;83.88;100819.31;6146819;23;20006;-83
2022/12/09 00:06:44;;;;;;;46.40;24.33;;;;;;;10.33;84.32;100799.41;6149261;23;20005;-84
2022/12/09 00:09:12;;;;;;;42.42;24.50;;;;;;;10.31;84.00;100804.91;6225177;23;20033;-83
2022/12/09 00:11:42;;;;;;;45.50;23.95;;;;;;;10.32;84.45;100819.19;6225328;23;20441;-83
2022/12/09 00:14:11;;;;;;;43.92;24.17;;;;;;;10.16;84.66;100795.72;6251448;22;20019;-84
2022/12/09 00:16:41;;;;;;;46.50;24.20;;;;;;;10.20;84.32;100805.13;6149144;23;20066;-85
2022/12/09 00:19:07;;;;;;;51.28;23.48;;;;;;;10.30;84.43;100810.44;6221805;23;20017;-83
2022/12/09 00:21:34;;;;;;;44.10;24.05;;;;;;;10.34;84.06;100801.91;6148695;23;20028;-82
2022/12/09 00:24:11;;;;;;;49.30;24.23;;;;;;;10.42;84.20;100811.91;6249830;22;20043;-84
2022/12/09 00:26:38;;;;;;;46.65;23.65;;;;;;;10.38;84.12;100797.06;6248560;22;20022;-86
2022/12/09 00:29:04;;;;;;;45.35;23.77;;;;;;;10.28;84.30;100789.13;6225770;23;20445;-86
2022/12/09 00:31:32;;;;;;;41.13;22.58;;;;;;;10.53;84.23;100818.84;6148204;23;20055;-84
2022/12/09 00:34:01;;;;;;;42.60;24.10;;;;;;;10.30;83.60;100788.94;6123618;23;20005;-84
2022/12/09 00:36:27;;;;;;;46.33;23.00;;;;;;;10.55;84.31;100814.16;6126247;23;20048;-83
2022/12/09 00:38:54;;;;;;;44.33;23.67;;;;;;;10.42;84.32;100793.09;6225816;23;20010;-83
2022/12/09 00:41:23;;;;;;;46.17;22.67;;;;;;;10.44;84.14;100801.84;6246581;22;20088;-83
2022/12/09 00:43:50;;;;;;;46.40;23.05;;;;;;;10.52;84.41;100811.81;6233796;23;20036;-85
2022/12/09 00:46:19;;;;;;;46.63;24.05;;;;;;;10.49;83.92;100825.56;6152752;23;20095;-83
2022/12/09 00:48:45;;;;;;;44.90;22.77;;;;;;;10.53;83.44;100826.91;6149846;23;20031;-83
2022/12/09 00:51:16;;;;;;;41.08;22.25;;;;;;;10.48;83.85;100813.09;6225140;23;20016;-84
2022/12/09 00:53:46;;;;;;;41.05;22.65;;;;;;;10.52;84.17;100831.47;6122097;22;20481;-83
2022/12/09 00:56:11;;;;;;;44.83;24.48;;;;;;;10.50;83.30;100819.19;6246021;22;20017;-83
2022/12/09 00:58:37;;;;;;;44.30;22.48;;;;;;;10.43;83.57;100821.63;6225577;23;20029;-87
2022/12/09 01:01:04;;;;;;;43.53;21.55;;;;;;;10.27;82.93;100790.06;6156995;23;20021;-83
2022/12/09 01:03:30;;;;;;;42.75;21.85;;;;;;;10.35;82.87;100803.63;6154002;22;20005;-84
2022/12/09 01:05:55;;;;;;;42.63;22.98;;;;;;;10.31;83.18;100787.97;6148851;23;20027;-83
2022/12/09 01:08:23;;;;;;;38.65;20.63;;;;;;;10.26;83.27;100793.75;6125188;23;20025;-84
2022/12/09 01:10:48;;;;;;;47.25;21.40;;;;;;;10.28;82.97;100799.88;6250599;22;20074;-84
2022/12/09 01:13:14;;;;;;;42.50;20.23;;;;;;;10.34;82.80;100811.81;6152643;23;20314;-83
2022/12/09 01:15:42;;;;;;;38.60;20.92;;;;;;;10.26;82.63;100787.56;6230114;23;20006;-84
2022/12/09 01:18:10;;;;;;;40.67;20.65;;;;;;;10.29;82.91;100804.22;6260096;22;20036;-84
2022/12/09 01:20:35;;;;;;;41.58;21.27;;;;;;;10.34;83.04;100814.50;6253467;22;20389;-83
2022/12/09 01:23:03;;;;;;;43.33;22.25;;;;;;;10.10;83.36;100781.03;6225442;23;20407;-83
2022/12/09 01:25:30;;;;;;;41.05;22.70;;;;;;;10.33;83.87;100827.09;6122101;22;20045;-86
2022/12/09 01:27:56;;;;;;;43.47;23.25;;;;;;;10.39;83.79;100820.25;6121979;23;20100;-85
2022/12/09 01:30:26;;;;;;;41.05;21.88;;;;;;;10.26;84.39;100787.56;6226049;22;20032;-84
2022/12/09 01:36:18;;;;;;;39.75;21.77;;;;;;;10.53;84.52;100813.47;6155582;22;20024;-84
2022/12/09 01:38:45;;;;;;;44.65;22.13;;;;;;;10.49;83.97;100825.56;6127808;22;20014;-85
2022/12/09 01:41:12;;;;;;;41.70;21.65;;;;;;;10.55;84.08;100804.25;6152993;23;20002;-85
2022/12/09 01:43:38;;;;;;;40.63;20.58;;;;;;;10.48;84.07;100811.25;6125119;22;20013;-84
2022/12/09 01:46:04;;;;;;;41.35;20.88;;;;;;;10.48;84.45;100813.09;6230656;23;20354;-83
2022/12/09 01:48:37;;;;;;;48.08;20.75;;;;;;;10.43;84.24;100810.06;6227815;23;20005;-84
2022/12/09 01:51:15;;;;;;;41.20;19.73;;;;;;;10.50;84.36;100805.72;6220068;23;20017;-85
2022/12/09 02:03:35;;;;;;;40.78;19.38;;;;;;;10.41;84.81;100786.00;6266215;22;20062;-83
2022/12/09 02:06:03;;;;;;;39.78;19.58;;;;;;;10.43;84.89;100793.91;6223183;23;20009;-83
2022/12/09 02:08:28;;;;;;;37.20;19.58;;;;;;;10.42;85.37;100809.22;6225314;23;20006;-82
2022/12/09 02:11:09;;;;;;;36.03;18.85;;;;;;;10.43;85.11;100797.44;6147435;23;20006;-82
2022/12/09 02:13:56;;;;;;;41.78;19.30;;;;;;;10.48;84.76;100819.31;6123959;23;20013;-83
2022/12/09 02:16:24;;;;;;;34.50;17.83;;;;;;;10.41;84.15;100790.53;6149972;23;20123;-82
2022/12/09 02:19:00;;;;;;;40.55;18.77;;;;;;;10.47;84.83;100822.19;6223934;23;20021;-84
2022/12/09 02:21:37;;;;;;;39.97;18.30;;;;;;;10.25;84.65;100781.31;6149422;23;20010;-82
2022/12/09 02:24:15;;;;;;;37.58;19.08;;;;;;;10.57;83.97;100822.91;6123554;23;20010;-83
2022/12/09 02:26:50;;;;;;;46.50;19.50;;;;;;;10.53;83.96;100818.84;6099539;23;20017;-81
2022/12/09 02:29:28;;;;;;;41.33;19.83;;;;;;;10.49;83.53;100822.88;6220849;23;20050;-83
2022/12/09 02:32:14;;;;;;;42.40;19.85;;;;;;;10.47;83.95;100816.81;6149816;23;20009;-86
2022/12/09 02:34:44;;;;;;;45.33;20.58;;;;;;;10.23;83.56;100771.72;6150206;23;20323;-85
2022/12/09 02:37:18;;;;;;;51.25;22.63;;;;;;;10.37;83.66;100799.91;6208425;23;20078;-85
2022/12/09 02:39:56;;;;;;;45.17;20.38;;;;;;;10.37;83.58;100773.03;6149749;23;20434;-84
2022/12/09 02:42:24;;;;;;;46.38;20.83;;;;;;;10.25;83.65;100759.81;6252400;22;20017;-84
2022/12/09 02:44:55;;;;;;;49.28;22.60;;;;;;;10.31;83.72;100771.84;6126975;23;20460;-85
2022/12/09 02:47:24;;;;;;;44.67;21.05;;;;;;;10.14;83.85;100749.34;6159909;23;20521;-83
2022/12/09 02:49:57;;;;;;;44.58;20.40;;;;;;;10.20;83.66;100750.56;6227712;23;20394;-85
2022/12/09 02:52:24;;;;;;;41.75;20.05;;;;;;;10.15;83.56;100759.91;6100398;23;20016;-84
2022/12/09 02:54:49;;;;;;;53.30;20.67;;;;;;;10.14;83.92;100779.72;6227326;23;20466;-82
2022/12/09 02:57:25;;;;;;;44.97;19.73;;;;;;;9.97;84.66;100766.31;6124116;23;20009;-84
2022/12/09 03:00:00;;;;;;;47.47;21.40;;;;;;;10.13;85.01;100790.63;6251171;22;20009;-84
2022/12/09 03:02:42;;;;;;;53.97;22.73;;;;;;;10.20;84.92;100798.91;6232904;22;20020;-83
2022/12/09 03:05:11;;;;;;;55.95;22.45;;;;;;;10.14;84.68;100789.63;6125049;23;20021;-83
2022/12/09 03:07:53;;;;;;;50.03;22.88;;;;;;;9.97;84.88;100752.88;6133797;23;20083;-86
2022/12/09 03:10:30;;;;;;;53.70;23.10;;;;;;;10.10;84.47;100764.06;6260071;22;20013;-86
2022/12/09 03:13:43;;;;;;;56.10;23.83;;;;;;;10.24;84.40;100787.69;6128486;23;20092;-85
2022/12/09 03:16:18;;;;;;;52.00;23.73;;;;;;;10.12;84.38;100786.25;6153615;23;20001;-84
2022/12/09 03:18:47;;;;;;;56.85;23.90;;;;;;;10.13;84.11;100798.69;6260852;22;20248;-83
2022/12/09 03:21:15;;;;;;;52.83;23.13;;;;;;;9.98;84.11;100773.38;6229248;23;20016;-84
2022/12/09 03:23:42;;;;;;;59.15;24.38;;;;;;;9.85;84.60;100774.59;6124158;23;20013;-83
2022/12/09 03:26:08;;;;;;;56.33;23.00;;;;;;;10.07;84.32;100797.47;6228715;23;20020;-84
2022/12/09 03:28:38;;;;;;;54.63;23.38;;;;;;;10.12;83.86;100810.44;6230747;23;20006;-84
2022/12/09 03:31:17;;;;;;;53.22;22.63;;;;;;;10.00;84.82;100814.38;6199422;23;20088;-83
2022/12/09 03:33:45;;;;;;;58.67;24.30;;;;;;;9.87;84.60;100798.63;6128275;23;20002;-84
2022/12/09 03:36:12;;;;;;;55.88;23.90;;;;;;;9.90;84.70;100799.16;6235427;23;20418;-84
2022/12/09 03:38:38;;;;;;;57.17;24.27;;;;;;;9.70;84.50;100785.03;6254696;22;20037;-82
2022/12/09 03:41:31;;;;;;;53.40;23.15;;;;;;;9.99;84.69;100829.63;6127386;23;20438;-84
2022/12/09 03:44:41;;;;;;;54.78;21.92;;;;;;;10.03;84.20;100824.78;6100393;23;20018;-84
2022/12/09 03:47:09;;;;;;;55.08;21.92;;;;;;;9.87;84.62;100820.94;6257626;22;20013;-84
2022/12/09 03:49:36;;;;;;;49.40;23.20;;;;;;;9.83;84.69;100808.84;6255336;22;20096;-88
2022/12/09 03:52:24;;;;;;;56.85;24.10;;;;;;;9.78;84.48;100792.31;6149252;23;20013;-84
2022/12/09 03:54:55;;;;;;;61.42;26.38;;;;;;;9.90;84.54;100814.41;6099105;23;20138;-84
2022/12/09 03:57:20;;;;;;;71.50;27.77;;;;;;;9.82;84.47;100807.13;6247976;22;20163;-84
2022/12/09 03:59:51;;;;;;;62.35;27.30;;;;;;;9.80;84.49;100800.22;6250544;22;20421;-84
2022/12/09 04:02:17;;;;;;;58.20;26.55;;;;;;;9.98;84.31;100827.94;6222856;23;20085;-86
2022/12/09 05:50:04;;;;;;;57.88;28.95;;;;;;;9.92;81.38;100877.72;6116289;22;20147;-83
2022/12/09 05:52:29;;;;;;;59.70;27.77;;;;;;;9.89;81.32;100875.34;6122359;23;20113;-83
2022/12/09 05:54:56;;;;;;;64.40;27.35;;;;;;;9.76;81.64;100866.78;6098430;23;20021;-82
2022/12/09 05:57:22;;;;;;;54.08;25.77;;;;;;;9.85;81.69;100873.94;6093741;23;20025;-85
2022/12/09 05:59:49;;;;;;;57.83;26.33;;;;;;;9.75;81.99;100859.75;6071153;23;20046;-86
2022/12/09 06:02:16;;;;;;;57.55;25.13;;;;;;;9.85;82.06;100876.63;6094473;23;20009;-85
2022/12/09 06:04:42;;;;;;;54.33;26.08;;;;;;;9.81;82.34;100864.53;6071738;23;20049;-85
2022/12/09 06:07:08;;;;;;;55.78;25.88;;;;;;;10.18;81.50;100881.50;6100714;23;20017;-92
2022/12/09 06:10:27;;;;;;;54.90;24.20;;;;;;;10.30;80.54;100870.44;6118608;23;20010;-86
2022/12/09 06:13:01;;;;;;;52.45;25.45;;;;;;;10.45;80.25;100881.47;6114885;23;20137;-90
2022/12/09 06:15:50;;;;;;;48.30;26.05;;;;;;;10.74;79.33;100881.19;6113793;23;20014;-87
2022/12/09 06:18:34;;;;;;;51.95;23.52;;;;;;;10.78;78.62;100866.44;6110497;23;20021;-89
2022/12/09 06:21:06;;;;;;;60.58;23.58;;;;;;;10.81;77.98;100857.19;6097928;23;20076;-83
2022/12/09 06:23:36;;;;;;;51.08;22.58;;;;;;;11.00;77.39;100861.53;6094090;23;20010;-84
2022/12/09 06:26:02;;;;;;;59.90;22.92;;;;;;;11.25;76.45;100862.50;6094643;23;20022;-84
2022/12/09 06:28:29;;;;;;;53.38;22.70;;;;;;;11.57;76.09;100883.38;6102780;23;20009;-87
2022/12/09 06:30:58;;;;;;;44.72;20.50;;;;;;;11.43;75.49;100893.91;6124280;23;20044;-84
2022/12/09 06:33:25;;;;;;;46.15;19.45;;;;;;;11.66;75.20;100915.69;6096712;23;20013;-85
2022/12/09 06:35:51;;;;;;;47.97;20.27;;;;;;;11.61;74.35;100859.63;6072698;23;20492;-85
2022/12/09 06:38:19;;;;;;;45.83;19.58;;;;;;;11.97;73.84;100878.31;6124363;23;20002;-86
2022/12/09 06:41:38;;;;;;;41.17;18.88;;;;;;;12.38;72.91;100906.16;6103971;23;20048;-87
2022/12/09 06:44:03;;;;;;;45.10;19.80;;;;;;;12.43;71.86;100876.88;6226547;23;20010;-85
2022/12/09 06:46:30;;;;;;;36.63;17.13;;;;;;;12.59;70.66;100881.41;6137263;23;20029;-85
2022/12/09 06:49:03;;;;;;;56.00;18.95;;;;;;;12.77;70.50;100875.84;6112665;23;20036;-86
2022/12/09 06:52:15;;;;;;;55.33;19.98;;;;;;;13.14;69.92;100928.41;6129902;22;20046;-89
2022/12/09 06:55:09;;;;;;;51.55;17.98;;;;;;;13.13;69.37;100924.03;6127603;23;20006;-88
2022/12/09 06:57:36;;;;;;;36.08;15.80;;;;;;;13.09;68.53;100888.44;6111926;23;20071;-86
2022/12/09 07:00:11;;;;;;;43.65;16.35;;;;;;;13.42;68.04;100903.75;6110376;23;20093;-87
2022/12/09 07:02:52;;;;;;;40.53;15.40;;;;;;;13.52;67.38;100915.19;6097529;23;20014;-87
2022/12/09 07:05:25;;;;;;;47.22;16.70;;;;;;;13.93;66.66;100923.16;6075153;23;20014;-88
2022/12/09 07:07:55;;;;;;;40.90;16.80;;;;;;;14.12;65.67;100906.47;6098690;23;20010;-86
2022/12/09 07:10:26;;;;;;;36.78;15.75;;;;;;;15.29;62.85;100914.34;6100718;23;20002;-88
2022/12/09 07:12:59;;;;;;;32.90;15.05;;;;;;;16.78;56.93;100931.13;6123023;22;20076;-86
2022/12/09 07:15:31;;;;;;;33.40;16.80;;;;;;;17.74;53.59;100895.22;6100528;23;20096;-90
2022/12/09 07:18:08;;;;;;;40.55;16.55;;;;;;;19.03;50.40;100917.97;6103416;23;20091;-88
2022/12/09 07:20:36;;;;;;;35.92;17.88;;;;;;;20.23;47.23;100900.22;6129009;23;20024;-87
2022/12/09 07:23:01;;;;;;;52.10;21.70;;;;;;;21.37;45.41;100926.66;6099409;23;20006;-86
2022/12/09 07:25:50;;;;;;;45.20;22.45;;;;;;;22.09;42.81;100899.53;6104210;23;20022;-89
2022/12/09 07:28:23;;;;;;;45.08;22.88;;;;;;;22.80;41.01;100908.81;6140828;23;20011;-90
2022/12/09 07:31:46;;;;;;;68.90;24.75;;;;;;;23.51;39.09;100922.59;6158566;23;20017;-90
2022/12/09 07:34:46;;;;;;;46.42;21.77;;;;;;;23.74;37.55;100895.13;6296095;22;20007;-92
2022/12/09 08:19:32;;;;;;;37.90;16.05;;;;;;;26.83;31.29;100907.69;6113834;22;20027;-90
2022/12/09 08:22:22;;;;;;;36.35;16.08;;;;;;;27.44;30.22;100892.63;6078960;23;20038;-87
2022/12/09 08:25:46;;;;;;;44.25;17.58;;;;;;;28.35;28.76;100891.31;6090005;23;20101;-90
2022/12/09 08:28:27;;;;;;;31.08;15.30;;;;;;;28.61;28.34;100911.56;6086297;23;20018;-88
2022/12/09 08:31:17;;;;;;;37.67;15.73;;;;;;;29.64;26.91;100918.66;6079010;22;20026;-89
2022/12/09 08:34:32;;;;;;;28.63;14.93;;;;;;;29.49;26.46;100917.88;6076147;23;20477;-88
2022/12/09 08:37:05;;;;;;;29.35;14.05;;;;;;;29.75;26.54;100908.38;6082868;23;20017;-90
2022/12/09 09:22:01;;;;;;;33.83;11.27;;;;;;;30.42;24.41;100881.16;6214874;23;20052;-88
2022/12/09 09:58:51;;;;;;;43.40;20.23;;;;;;;30.40;25.10;100866.75;6130325;22;20026;-94
2022/12/09 10:01:38;;;;;;;42.85;16.40;;;;;;;30.14;24.99;100846.66;6049321;23;20019;-86
2022/12/09 10:04:29;;;;;;;42.78;19.52;;;;;;;30.71;24.53;100860.94;6022454;23;20022;-89
2022/12/09 11:03:53;;;;;;;28.42;14.52;;;;;;;23.91;34.93;100793.59;6131854;22;19915;-90
2022/12/09 11:13:11;;;;;;;31.20;14.98;;;;;;;22.03;38.45;100731.56;6167373;22;20059;-90
2022/12/09 11:18:52;;;;;;;29.88;14.23;;;;;;;21.05;41.06;100788.19;6340075;22;20022;-89
2022/12/09 11:29:59;;;;;;;27.52;12.52;;;;;;;19.30;45.54;100768.84;6254026;22;20030;-91
2022/12/09 11:32:26;;;;;;;34.30;13.73;;;;;;;19.03;46.08;100771.66;6158982;23;20017;-82
2022/12/09 11:34:53;;;;;;;30.58;13.75;;;;;;;18.77;47.31;100794.34;6097652;23;20028;-85
2022/12/09 11:37:19;;;;;;;35.78;12.90;;;;;;;18.61;47.74;100767.53;6121448;23;20010;-83
2022/12/09 11:39:49;;;;;;;;;;;;;;;18.51;48.58;100784.28;6099064;23;20009;-87
2022/12/09 11:42:38;;;;;;;36.10;12.73;;;;;;;18.16;49.17;100776.31;6125659;23;19913;-83
2022/12/09 11:45:20;;;;;;;30.83;12.15;;;;;;;17.99;49.68;100769.63;6122577;23;20094;-82
2022/12/09 11:47:47;;;;;;;32.35;12.68;;;;;;;17.51;51.06;100744.19;6101419;23;20098;-82
2022/12/09 11:50:17;;;;;;;28.63;12.70;;;;;;;17.32;51.71;100747.66;6122050;23;20010;-84
2022/12/09 11:52:45;;;;;;;33.55;13.30;;;;;;;16.91;52.60;100753.94;6104583;23;20032;-82
2022/12/09 11:55:15;;;;;;;36.08;13.23;;;;;;;16.84;53.68;100762.06;6113435;23;20082;-82
2022/12/09 11:58:00;;;;;;;31.58;13.55;;;;;;;16.68;54.11;100763.16;6128503;23;20472;-82
2022/12/09 12:00:29;;;;;;;29.40;13.68;;;;;;;16.58;54.37;100762.69;6148117;23;20009;-81
2022/12/09 12:03:15;;;;;;;27.55;12.77;;;;;;;16.51;54.95;100759.09;6097935;23;20005;-81
2022/12/09 12:05:41;;;;;;;;;;;;;;;16.42;55.13;100757.56;6148952;23;20005;-82
2022/12/09 12:08:26;;;;;;;30.38;13.48;;;;;;;16.36;55.27;100759.16;6118489;23;20004;-84
2022/12/09 12:11:16;;;;;;;31.20;12.80;;;;;;;16.32;55.57;100751.63;6147302;23;20075;-86
2022/12/09 12:13:49;;;;;;;41.50;14.65;;;;;;;16.12;56.30;100765.03;6144368;23;20042;-81
2022/12/09 12:16:18;;;;;;;32.65;13.45;;;;;;;15.99;56.21;100741.31;6097342;23;20034;-84
2022/12/09 12:19:15;;;;;;;41.15;14.85;;;;;;;15.96;56.57;100741.72;6102715;23;20010;-82
2022/12/09 12:22:34;;;;;;;38.42;14.68;;;;;;;15.85;57.19;100763.91;6106057;23;20343;-82
2022/12/09 12:25:15;;;;;;;28.77;12.90;;;;;;;15.95;56.46;100748.19;6170566;23;20024;-82
2022/12/09 12:27:55;;;;;;;34.70;12.25;;;;;;;16.09;56.34;100760.81;6146730;23;20013;-85
2022/12/09 12:30:24;;;;;;;28.35;11.77;;;;;;;16.18;55.53;100759.66;6147268;23;20156;-83
2022/12/09 12:32:52;;;;;;;38.60;12.20;;;;;;;16.36;55.06;100770.00;6121005;23;20029;-84
2022/12/09 12:35:30;;;;;;;30.17;12.55;;;;;;;16.54;54.68;100760.56;6146400;23;20017;-84
2022/12/09 12:38:28;;;;;;;32.78;13.20;;;;;;;16.61;53.97;100727.00;6146665;23;20066;-80
2022/12/09 12:41:24;;;;;;;28.83;11.95;;;;;;;17.05;52.86;100758.41;6124053;23;20393;-84
2022/12/09 12:46:57;;;;;;;29.95;11.82;;;;;;;17.32;51.84;100768.56;6147541;23;20032;-86
2022/12/09 12:49:51;;;;;;;32.13;11.25;;;;;;;17.58;51.27;100765.09;6122172;23;20005;-87
2022/12/09 12:52:40;;;;;;;28.83;12.13;;;;;;;17.63;51.04;100754.44;6126827;23;20017;-85
2022/12/09 12:55:16;;;;;;;32.72;11.70;;;;;;;17.64;50.99;100762.41;6150022;23;20005;-87
2022/12/09 12:58:22;;;;;;;25.35;11.57;;;;;;;17.42;51.83;100769.88;6120276;23;20037;-85
2022/12/09 13:01:00;;;;;;;31.23;11.38;;;;;;;17.24;52.18;100762.25;6101969;23;20017;-85
2022/12/09 13:03:31;;;;;;;32.75;11.55;;;;;;;17.04;52.14;100751.31;6128459;23;20377;-85
2022/12/09 13:05:58;;;;;;;25.85;11.85;;;;;;;16.83;52.80;100749.53;6102876;23;20021;-85
2022/12/09 13:08:41;;;;;;;;;;;;;;;16.75;53.44;100765.09;6124481;23;20021;-83
2022/12/09 13:11:15;;;;;;;34.95;12.02;;;;;;;16.52;53.85;100749.91;6147529;23;19908;-84
2022/12/09 13:13:58;;;;;;;28.15;11.43;;;;;;;16.59;54.06;100750.78;6104788;23;20522;-86
2022/12/09 13:16:48;;;;;;;22.08;10.30;;;;;;;16.61;53.87;100751.41;6124398;23;20010;-83
2022/12/09 13:19:28;;;;;;;22.45;11.13;;;;;;;16.61;54.01;100751.41;6127371;23;20021;-84
2022/12/09 13:21:53;;;;;;;29.40;12.02;;;;;;;16.54;53.86;100738.84;6123470;23;20025;-83
2022/12/09 13:24:42;;;;;;;39.53;12.80;;;;;;;16.53;54.42;100731.72;6096940;23;20380;-83
2022/12/09 13:27:18;;;;;;;33.53;12.30;;;;;;;16.56;54.38;100742.22;6121466;23;20052;-84
2022/12/09 13:30:16;;;;;;;35.13;12.52;;;;;;;16.42;54.80;100752.13;6097969;23;20022;-85
2022/12/09 13:33:19;;;;;;;33.90;12.00;;;;;;;16.39;54.98;100753.38;6142426;23;20526;-86
2022/12/09 13:36:20;;;;;;;37.78;13.23;;;;;;;16.30;55.48;100754.53;6147166;23;20041;-85
2022/12/09 13:38:45;;;;;;;32.42;12.55;;;;;;;16.15;56.10;100754.59;6128449;23;20013;-83
2022/12/09 13:41:26;;;;;;;29.05;10.77;;;;;;;16.08;55.62;100756.41;6147292;23;20058;-84
2022/12/09 13:44:06;;;;;;;33.47;12.05;;;;;;;15.74;56.71;100749.84;6147701;23;20036;-84
2022/12/09 13:46:32;;;;;;;37.40;15.77;;;;;;;15.77;57.26;100764.88;6128746;23;20002;-83
2022/12/09 13:49:08;;;;;;;43.88;13.82;;;;;;;15.56;57.50;100744.00;6096452;23;20032;-86
2022/12/09 13:51:45;;;;;;;29.42;13.93;;;;;;;15.57;57.67;100759.22;6099169;23;20002;-85
2022/12/09 13:54:17;;;;;;;31.05;13.30;;;;;;;15.46;58.05;100747.00;6124778;23;20037;-86
2022/12/09 13:56:43;;;;;;;37.15;13.93;;;;;;;15.26;58.34;100727.78;6120780;23;20082;-85
2022/12/09 13:59:31;;;;;;;38.67;15.40;;;;;;;15.45;58.58;100768.88;6072934;23;20360;-84
2022/12/09 14:02:12;;;;;;;47.50;16.60;;;;;;;15.34;58.91;100773.75;6147486;23;20006;-84
2022/12/09 14:04:46;;;;;;;48.55;19.15;;;;;;;15.27;59.19;100772.81;6102460;23;20013;-86
2022/12/09 14:07:18;;;;;;;51.35;17.50;;;;;;;15.22;59.47;100772.56;6125430;23;20013;-86
2022/12/09 14:09:48;;;;;;;50.35;18.20;;;;;;;15.13;59.95;100768.28;6147057;22;20471;-85
2022/12/09 14:12:24;;;;;;;47.85;17.98;;;;;;;14.77;61.45;100774.41;6120846;23;20028;-89
2022/12/09 14:14:53;;;;;;;46.85;16.90;;;;;;;14.42;61.88;100755.16;6123127;23;20024;-86
2022/12/09 14:17:39;;;;;;;42.30;15.68;;;;;;;14.32;62.03;100722.94;6122262;23;20017;-84
2022/12/09 14:20:21;;;;;;;43.38;14.15;;;;;;;14.41;62.36;100756.16;6147025;23;20491;-84
2022/12/09 14:23:23;;;;;;;30.35;11.27;;;;;;;14.11;63.65;100758.78;6147273;23;20370;-83
2022/12/09 14:25:59;;;;;;;37.58;13.07;;;;;;;14.01;63.96;100736.56;6177615;23;20021;-83
2022/12/09 14:28:39;;;;;;;33.67;11.68;;;;;;;14.04;64.80;100749.72;6103839;23;20096;-83
2022/12/09 14:31:05;;;;;;;28.85;10.85;;;;;;;13.86;65.40;100749.19;6110123;23;20037;-82
2022/12/09 14:33:31;;;;;;;;;;;;;;;13.80;66.79;100747.22;6113457;23;20010;-83
2022/12/09 14:36:09;;;;;;;28.52;10.32;;;;;;;13.72;67.25;100751.66;6148681;22;19919;-84
2022/12/09 14:38:53;;;;;;;24.63;10.65;;;;;;;13.54;67.92;100750.25;6122877;23;20010;-87
2022/12/09 14:41:30;;;;;;;23.05;10.70;;;;;;;13.26;68.13;100721.84;6146730;23;20442;-86
2022/12/09 14:44:55;;;;;;;27.88;10.25;;;;;;;13.40;69.51;100751.84;6129556;23;20438;-85
2022/12/09 14:52:34;;;;;;;24.77;11.73;;;;;;;12.88;71.74;100712.75;6127762;23;20022;-87
2022/12/09 14:55:06;;;;;;;26.05;11.88;;;;;;;12.95;71.83;100729.09;6105339;23;20014;-90
2022/12/09 14:57:45;;;;;;;30.40;12.30;;;;;;;12.97;72.26;100738.69;6131991;23;20014;-88
2022/12/09 15:00:24;;;;;;;32.90;14.13;;;;;;;12.87;72.98;100744.28;6128254;23;20025;-86
2022/12/09 15:02:59;;;;;;;37.05;13.38;;;;;;;12.78;73.32;100742.66;6119597;23;20033;-85
2022/12/09 15:05:25;;;;;;;35.03;12.98;;;;;;;12.59;73.86;100730.38;6098257;23;20014;-87
2022/12/09 15:07:51;;;;;;;30.80;13.63;;;;;;;12.53;74.28;100741.03;6121952;23;20140;-84
2022/12/09 15:10:20;;;;;;;32.38;13.25;;;;;;;12.56;74.38;100741.50;6117242;23;20398;-85
2022/12/09 15:12:49;;;;;;;37.83;13.70;;;;;;;12.54;74.72;100742.69;6069197;23;20006;-85
2022/12/09 15:15:19;;;;;;;28.98;12.98;;;;;;;12.59;75.15;100749.25;6093656;23;20014;-83
2022/12/09 15:17:44;;;;;;;29.80;13.10;;;;;;;12.56;75.67;100746.06;6119500;23;20006;-86
2022/12/09 15:20:36;;;;;;;32.50;13.60;;;;;;;12.51;76.73;100749.28;6119531;23;20033;-85
2022/12/09 15:23:35;;;;;;;33.78;13.38;;;;;;;12.38;76.99;100728.22;6120757;23;20250;-85
2022/12/09 15:26:06;;;;;;;32.42;13.32;;;;;;;12.38;77.78;100741.69;6071672;23;20013;-83
2022/12/09 15:28:34;;;;;;;32.45;14.18;;;;;;;12.37;78.02;100731.09;6093629;23;20010;-84
2022/12/09 15:31:04;;;;;;;35.67;14.30;;;;;;;12.28;78.06;100730.25;6077954;23;20109;-83
2022/12/09 15:33:31;;;;;;;39.67;14.90;;;;;;;12.35;78.34;100744.75;6118824;23;20025;-85
2022/12/09 15:36:15;;;;;;;36.97;15.02;;;;;;;12.31;78.88;100738.00;6128267;23;20002;-86
2022/12/09 15:38:50;;;;;;;35.10;14.77;;;;;;;12.31;79.01;100732.59;6133995;23;20036;-86
